sensor_id;sensor_type;location;lat;lon;timestamp;pressure;altitude;pressure_sealevel;temperature;humidity
59873;BME280;50750;51.636;4.948;2023-04-26T00:02:24;102099.35;;;14.03;57.11
59873;BME280;50750;51.636;4.948;2023-04-26T00:04:52;102100.95;;;14.03;57.07
59873;BME280;50750;51.636;4.948;2023-04-26T00:07:24;102102.71;;;14.02;56.98
59873;BME280;50750;51.636;4.948;2023-04-26T00:09:50;102102.89;;;14.02;56.82
59873;BME280;50750;51.636;4.948;2023-04-26T00:12:19;102096.58;;;14.01;57.06
59873;BME280;50750;51.636;4.948;2023-04-26T00:14:47;102095.70;;;14.01;57.10
59873;BME280;50750;51.636;4.948;2023-04-26T00:17:13;102099.09;;;14.00;57.05
59873;BME280;50750;51.636;4.948;2023-04-26T00:19:40;102105.40;;;14.00;57.06
59873;BME280;50750;51.636;4.948;2023-04-26T00:22:07;102108.77;;;14.00;56.97
59873;BME280;50750;51.636;4.948;2023-04-26T00:24:36;102108.08;;;13.99;56.94
59873;BME280;50750;51.636;4.948;2023-04-26T00:27:03;102107.39;;;13.98;57.01
59873;BME280;50750;51.636;4.948;2023-04-26T00:29:34;102105.46;;;13.98;56.95
59873;BME280;50750;51.636;4.948;2023-04-26T00:32:01;102106.36;;;13.98;57.02
59873;BME280;50750;51.636;4.948;2023-04-26T00:34:31;102109.01;;;13.98;56.80
59873;BME280;50750;51.636;4.948;2023-04-26T00:36:58;102109.02;;;13.97;57.04
59873;BME280;50750;51.636;4.948;2023-04-26T00:39:25;102107.80;;;13.96;56.94
59873;BME280;50750;51.636;4.948;2023-04-26T00:41:52;102109.73;;;13.96;56.90
59873;BME280;50750;51.636;4.948;2023-04-26T00:44:19;102109.74;;;13.96;56.88
59873;BME280;50750;51.636;4.948;2023-04-26T00:46:46;102108.35;;;13.96;56.94
59873;BME280;50750;51.636;4.948;2023-04-26T00:49:15;102111.17;;;13.95;56.80
59873;BME280;50750;51.636;4.948;2023-04-26T00:51:43;102107.14;;;13.94;56.82
59873;BME280;50750;51.636;4.948;2023-04-26T00:54:11;102105.38;;;13.94;56.83
59873;BME280;50750;51.636;4.948;2023-04-26T00:56:38;102101.69;;;13.93;56.95
59873;BME280;50750;51.636;4.948;2023-04-26T00:59:05;102097.84;;;13.92;56.92
59873;BME280;50750;51.636;4.948;2023-04-26T01:01:33;102096.98;;;13.92;56.87
59873;BME280;50750;51.636;4.948;2023-04-26T01:04:01;102097.15;;;13.92;56.91
59873;BME280;50750;51.636;4.948;2023-04-26T01:06:33;102096.13;;;13.91;56.98
59873;BME280;50750;51.636;4.948;2023-04-26T01:09:02;102097.87;;;13.91;56.91
59873;BME280;50750;51.636;4.948;2023-04-26T01:11:37;102099.66;;;13.90;56.92
59873;BME280;50750;51.636;4.948;2023-04-26T01:14:04;102100.01;;;13.90;56.82
59873;BME280;50750;51.636;4.948;2023-04-26T01:16:31;102100.36;;;13.90;56.89
59873;BME280;50750;51.636;4.948;2023-04-26T01:19:06;102102.31;;;13.90;56.86
59873;BME280;50750;51.636;4.948;2023-04-26T01:21:34;102103.94;;;13.89;56.84
59873;BME280;50750;51.636;4.948;2023-04-26T01:24:02;102103.94;;;13.88;56.89
59873;BME280;50750;51.636;4.948;2023-04-26T01:26:29;102109.73;;;13.88;56.78
59873;BME280;50750;51.636;4.948;2023-04-26T01:28:57;102114.86;;;13.88;56.98
59873;BME280;50750;51.636;4.948;2023-04-26T01:31:24;102115.75;;;13.87;56.90
59873;BME280;50750;51.636;4.948;2023-04-26T01:33:51;102114.20;;;13.87;56.74
59873;BME280;50750;51.636;4.948;2023-04-26T01:36:17;102112.42;;;13.86;56.70
59873;BME280;50750;51.636;4.948;2023-04-26T01:38:44;102111.39;;;13.86;56.61
59873;BME280;50750;51.636;4.948;2023-04-26T01:41:10;102111.22;;;13.86;56.87
59873;BME280;50750;51.636;4.948;2023-04-26T01:43:37;102104.73;;;13.85;56.81
59873;BME280;50750;51.636;4.948;2023-04-26T01:46:03;102104.55;;;13.85;56.61
59873;BME280;50750;51.636;4.948;2023-04-26T01:48:30;102104.57;;;13.84;56.67
59873;BME280;50750;51.636;4.948;2023-04-26T01:50:56;102100.89;;;13.84;56.73
59873;BME280;50750;51.636;4.948;2023-04-26T01:53:22;102102.64;;;13.83;56.76
59873;BME280;50750;51.636;4.948;2023-04-26T01:55:49;102102.29;;;13.83;56.70
59873;BME280;50750;51.636;4.948;2023-04-26T01:58:16;102103.89;;;13.82;56.83
59873;BME280;50750;51.636;4.948;2023-04-26T02:00:43;102102.16;;;13.82;56.71
59873;BME280;50750;51.636;4.948;2023-04-26T02:03:09;102102.70;;;13.81;56.69
59873;BME280;50750;51.636;4.948;2023-04-26T02:05:36;102105.69;;;13.81;56.73
59873;BME280;50750;51.636;4.948;2023-04-26T02:08:02;102108.69;;;13.81;56.81
59873;BME280;50750;51.636;4.948;2023-04-26T02:10:29;102107.31;;;13.80;56.69
59873;BME280;50750;51.636;4.948;2023-04-26T02:12:56;102108.89;;;13.80;56.82
59873;BME280;50750;51.636;4.948;2023-04-26T02:15:22;102107.86;;;13.79;56.71
59873;BME280;50750;51.636;4.948;2023-04-26T02:17:49;102109.98;;;13.79;56.74
59873;BME280;50750;51.636;4.948;2023-04-26T02:20:15;102105.24;;;13.78;56.72
59873;BME280;50750;51.636;4.948;2023-04-26T02:22:42;102105.77;;;13.78;56.68
59873;BME280;50750;51.636;4.948;2023-04-26T02:25:09;102103.15;;;13.77;56.71
59873;BME280;50750;51.636;4.948;2023-04-26T02:27:37;102103.52;;;13.77;56.68
59873;BME280;50750;51.636;4.948;2023-04-26T02:30:04;102102.30;;;13.76;56.61
59873;BME280;50750;51.636;4.948;2023-04-26T02:32:31;102107.58;;;13.76;56.87
59873;BME280;50750;51.636;4.948;2023-04-26T02:34:57;102104.59;;;13.76;56.76
59873;BME280;50750;51.636;4.948;2023-04-26T02:37:24;102102.66;;;13.75;56.83
59873;BME280;50750;51.636;4.948;2023-04-26T02:39:50;102099.34;;;13.75;56.71
59873;BME280;50750;51.636;4.948;2023-04-26T02:42:17;102099.16;;;13.74;56.81
59873;BME280;50750;51.636;4.948;2023-04-26T02:44:43;102098.65;;;13.74;56.81
59873;BME280;50750;51.636;4.948;2023-04-26T02:47:10;102097.79;;;13.73;56.67
59873;BME280;50750;51.636;4.948;2023-04-26T02:49:36;102092.15;;;13.73;56.57
59873;BME280;50750;51.636;4.948;2023-04-26T02:52:03;102089.00;;;13.72;56.64
59873;BME280;50750;51.636;4.948;2023-04-26T02:54:30;102091.66;;;13.72;56.71
59873;BME280;50750;51.636;4.948;2023-04-26T02:56:56;102089.73;;;13.72;56.72
59873;BME280;50750;51.636;4.948;2023-04-26T02:59:24;102086.58;;;13.71;56.64
59873;BME280;50750;51.636;4.948;2023-04-26T03:01:50;102087.29;;;13.71;56.68
59873;BME280;50750;51.636;4.948;2023-04-26T03:04:17;102086.77;;;13.70;56.67
59873;BME280;50750;51.636;4.948;2023-04-26T03:06:44;102085.54;;;13.69;56.63
59873;BME280;50750;51.636;4.948;2023-04-26T03:09:11;102086.25;;;13.69;56.60
59873;BME280;50750;51.636;4.948;2023-04-26T03:11:37;102083.27;;;13.69;56.49
59873;BME280;50750;51.636;4.948;2023-04-26T03:14:04;102084.52;;;13.69;56.61
59873;BME280;50750;51.636;4.948;2023-04-26T03:16:30;102082.59;;;13.68;56.27
59873;BME280;50750;51.636;4.948;2023-04-26T03:19:06;102077.51;;;13.68;56.57
59873;BME280;50750;51.636;4.948;2023-04-26T03:21:32;102082.80;;;13.67;56.44
59873;BME280;50750;51.636;4.948;2023-04-26T03:23:59;102084.91;;;13.66;56.48
59873;BME280;50750;51.636;4.948;2023-04-26T03:26:25;102086.34;;;13.66;56.53
59873;BME280;50750;51.636;4.948;2023-04-26T03:28:52;102085.30;;;13.65;56.44
59873;BME280;50750;51.636;4.948;2023-04-26T03:31:18;102082.50;;;13.65;56.43
59873;BME280;50750;51.636;4.948;2023-04-26T03:33:46;102079.69;;;13.64;56.57
59873;BME280;50750;51.636;4.948;2023-04-26T03:36:13;102076.54;;;13.63;56.62
59873;BME280;50750;51.636;4.948;2023-04-26T03:38:40;102079.19;;;13.63;56.35
59873;BME280;50750;51.636;4.948;2023-04-26T03:41:08;102078.66;;;13.63;56.62
59873;BME280;50750;51.636;4.948;2023-04-26T03:43:34;102077.97;;;13.63;56.52
59873;BME280;50750;51.636;4.948;2023-04-26T03:46:01;102078.68;;;13.63;56.18
59873;BME280;50750;51.636;4.948;2023-04-26T03:48:27;102078.50;;;13.62;56.54
59873;BME280;50750;51.636;4.948;2023-04-26T03:50:53;102083.79;;;13.62;56.29
59873;BME280;50750;51.636;4.948;2023-04-26T03:53:20;102081.50;;;13.62;56.48
59873;BME280;50750;51.636;4.948;2023-04-26T03:55:47;102079.58;;;13.61;56.48
59873;BME280;50750;51.636;4.948;2023-04-26T03:58:13;102074.88;;;13.60;56.38
59873;BME280;50750;51.636;4.948;2023-04-26T04:00:40;102078.39;;;13.60;56.40
59873;BME280;50750;51.636;4.948;2023-04-26T04:03:08;102078.73;;;13.59;56.44
59873;BME280;50750;51.636;4.948;2023-04-26T04:05:35;102076.64;;;13.59;56.43
59873;BME280;50750;51.636;4.948;2023-04-26T04:08:02;102079.10;;;13.59;56.34
59873;BME280;50750;51.636;4.948;2023-04-26T04:10:29;102076.84;;;13.58;56.28
59873;BME280;50750;51.636;4.948;2023-04-26T04:12:55;102073.17;;;13.57;56.27
59873;BME280;50750;51.636;4.948;2023-04-26T04:15:22;102071.95;;;13.56;56.39
59873;BME280;50750;51.636;4.948;2023-04-26T04:17:48;102070.38;;;13.56;56.16
59873;BME280;50750;51.636;4.948;2023-04-26T04:20:15;102069.70;;;13.55;56.43
59873;BME280;50750;51.636;4.948;2023-04-26T04:22:41;102075.34;;;13.55;56.26
59873;BME280;50750;51.636;4.948;2023-04-26T04:25:09;102075.89;;;13.55;56.40
59873;BME280;50750;51.636;4.948;2023-04-26T04:27:36;102076.92;;;13.54;56.24
59873;BME280;50750;51.636;4.948;2023-04-26T04:30:04;102078.53;;;13.54;56.36
59873;BME280;50750;51.636;4.948;2023-04-26T04:32:32;102085.58;;;13.53;56.33
59873;BME280;50750;51.636;4.948;2023-04-26T04:34:59;102092.45;;;13.53;56.25
59873;BME280;50750;51.636;4.948;2023-04-26T04:37:26;102094.58;;;13.52;56.11
59873;BME280;50750;51.636;4.948;2023-04-26T04:39:53;102092.30;;;13.51;56.36
59873;BME280;50750;51.636;4.948;2023-04-26T04:42:20;102090.02;;;13.52;56.20
59873;BME280;50750;51.636;4.948;2023-04-26T04:44:46;102090.02;;;13.51;56.26
59873;BME280;50750;51.636;4.948;2023-04-26T04:47:13;102090.73;;;13.51;56.38
59873;BME280;50750;51.636;4.948;2023-04-26T04:49:40;102092.52;;;13.50;56.39
59873;BME280;50750;51.636;4.948;2023-04-26T04:52:07;102090.06;;;13.50;56.34
59873;BME280;50750;51.636;4.948;2023-04-26T04:54:33;102089.73;;;13.49;56.11
59873;BME280;50750;51.636;4.948;2023-04-26T04:56:59;102088.48;;;13.49;56.26
59873;BME280;50750;51.636;4.948;2023-04-26T04:59:27;102089.91;;;13.48;56.36
59873;BME280;50750;51.636;4.948;2023-04-26T05:01:54;102089.20;;;13.48;56.25
59873;BME280;50750;51.636;4.948;2023-04-26T05:04:21;102085.02;;;13.47;56.29
59873;BME280;50750;51.636;4.948;2023-04-26T05:06:47;102083.80;;;13.46;56.41
59873;BME280;50750;51.636;4.948;2023-04-26T05:09:14;102085.91;;;13.46;56.37
59873;BME280;50750;51.636;4.948;2023-04-26T05:11:40;102088.56;;;13.45;56.20
59873;BME280;50750;51.636;4.948;2023-04-26T05:14:07;102089.26;;;13.45;56.53
59873;BME280;50750;51.636;4.948;2023-04-26T05:16:34;102090.69;;;13.45;56.45
59873;BME280;50750;51.636;4.948;2023-04-26T05:19:01;102092.46;;;13.44;56.49
59873;BME280;50750;51.636;4.948;2023-04-26T05:21:27;102092.29;;;13.44;56.39
59873;BME280;50750;51.636;4.948;2023-04-26T05:23:54;102089.83;;;13.44;56.30
59873;BME280;50750;51.636;4.948;2023-04-26T05:26:20;102092.14;;;13.44;56.43
59873;BME280;50750;51.636;4.948;2023-04-26T05:28:46;102095.13;;;13.43;56.46
59873;BME280;50750;51.636;4.948;2023-04-26T05:31:13;102094.26;;;13.43;56.42
59873;BME280;50750;51.636;4.948;2023-04-26T05:33:39;102096.89;;;13.43;56.56
59873;BME280;50750;51.636;4.948;2023-04-26T05:36:06;102094.96;;;13.42;56.52
59873;BME280;50750;51.636;4.948;2023-04-26T05:38:35;102091.27;;;13.42;56.47
59873;BME280;50750;51.636;4.948;2023-04-26T05:41:03;102093.05;;;13.42;56.51
59873;BME280;50750;51.636;4.948;2023-04-26T05:43:29;102095.34;;;13.41;56.50
59873;BME280;50750;51.636;4.948;2023-04-26T05:45:56;102096.95;;;13.40;56.61
59873;BME280;50750;51.636;4.948;2023-04-26T05:48:23;102097.30;;;13.41;56.51
59873;BME280;50750;51.636;4.948;2023-04-26T05:50:50;102097.83;;;13.41;56.58
59873;BME280;50750;51.636;4.948;2023-04-26T05:53:18;102102.04;;;13.41;56.52
59873;BME280;50750;51.636;4.948;2023-04-26T05:55:45;102106.09;;;13.40;56.66
59873;BME280;50750;51.636;4.948;2023-04-26T05:58:11;102112.59;;;13.40;56.62
59873;BME280;50750;51.636;4.948;2023-04-26T06:00:38;102108.56;;;13.40;56.67
59873;BME280;50750;51.636;4.948;2023-04-26T06:03:04;102110.33;;;13.40;56.61
59873;BME280;50750;51.636;4.948;2023-04-26T06:05:31;102112.80;;;13.39;56.61
59873;BME280;50750;51.636;4.948;2023-04-26T06:07:58;102119.30;;;13.40;56.72
59873;BME280;50750;51.636;4.948;2023-04-26T06:10:25;102117.38;;;13.39;56.62
59873;BME280;50750;51.636;4.948;2023-04-26T06:12:52;102118.08;;;13.39;56.75
59873;BME280;50750;51.636;4.948;2023-04-26T06:15:18;102123.89;;;13.39;56.83
59873;BME280;50750;51.636;4.948;2023-04-26T06:17:45;102130.40;;;13.39;56.85
59873;BME280;50750;51.636;4.948;2023-04-26T06:20:11;102131.64;;;13.39;56.71
59873;BME280;50750;51.636;4.948;2023-04-26T06:22:38;102130.06;;;13.39;56.98
59873;BME280;50750;51.636;4.948;2023-04-26T06:25:06;102133.73;;;13.39;56.86
59873;BME280;50750;51.636;4.948;2023-04-26T06:27:32;102135.17;;;13.39;57.03
59873;BME280;50750;51.636;4.948;2023-04-26T06:29:59;102136.40;;;13.38;56.97
59873;BME280;50750;51.636;4.948;2023-04-26T06:32:26;102140.98;;;13.39;56.78
59873;BME280;50750;51.636;4.948;2023-04-26T06:34:52;102139.40;;;13.38;56.87
59873;BME280;50750;51.636;4.948;2023-04-26T06:37:19;102146.09;;;13.38;57.04
59873;BME280;50750;51.636;4.948;2023-04-26T06:39:45;102147.50;;;13.38;57.00
59873;BME280;50750;51.636;4.948;2023-04-26T06:42:12;102143.28;;;13.37;57.11
59873;BME280;50750;51.636;4.948;2023-04-26T06:44:38;102141.86;;;13.38;56.92
59873;BME280;50750;51.636;4.948;2023-04-26T06:47:05;102141.70;;;13.38;57.08
59873;BME280;50750;51.636;4.948;2023-04-26T06:49:34;102137.84;;;13.37;57.11
59873;BME280;50750;51.636;4.948;2023-04-26T06:52:01;102134.48;;;13.37;57.00
59873;BME280;50750;51.636;4.948;2023-04-26T06:54:28;102135.02;;;13.37;57.04
59873;BME280;50750;51.636;4.948;2023-04-26T06:56:55;102135.55;;;13.37;57.21
59873;BME280;50750;51.636;4.948;2023-04-26T06:59:22;102136.96;;;13.37;57.13
59873;BME280;50750;51.636;4.948;2023-04-26T07:01:48;102140.84;;;13.37;57.04
59873;BME280;50750;51.636;4.948;2023-04-26T07:04:15;102142.95;;;13.37;57.11
59873;BME280;50750;51.636;4.948;2023-04-26T07:06:43;102142.95;;;13.37;57.27
59873;BME280;50750;51.636;4.948;2023-04-26T07:09:10;102143.14;;;13.37;57.08
59873;BME280;50750;51.636;4.948;2023-04-26T07:11:37;102143.14;;;13.36;56.97
59873;BME280;50750;51.636;4.948;2023-04-26T07:14:04;102142.08;;;13.36;56.88
59873;BME280;50750;51.636;4.948;2023-04-26T07:16:30;102140.67;;;13.36;57.18
59873;BME280;50750;51.636;4.948;2023-04-26T07:18:57;102139.25;;;13.37;57.09
59873;BME280;50750;51.636;4.948;2023-04-26T07:21:24;102138.92;;;13.36;57.22
59873;BME280;50750;51.636;4.948;2023-04-26T07:23:55;102142.05;;;13.37;57.08
59873;BME280;50750;51.636;4.948;2023-04-26T07:26:23;102140.13;;;13.37;57.16
59873;BME280;50750;51.636;4.948;2023-04-26T07:28:50;102135.56;;;13.37;57.19
59873;BME280;50750;51.636;4.948;2023-04-26T07:31:20;102133.62;;;13.37;57.23
59873;BME280;50750;51.636;4.948;2023-04-26T07:33:47;102136.41;;;13.37;57.13
59873;BME280;50750;51.636;4.948;2023-04-26T07:36:14;102134.32;;;13.37;57.33
59873;BME280;50750;51.636;4.948;2023-04-26T07:38:41;102133.60;;;13.38;57.35
59873;BME280;50750;51.636;4.948;2023-04-26T07:41:08;102132.71;;;13.38;57.12
59873;BME280;50750;51.636;4.948;2023-04-26T07:43:34;102135.89;;;13.38;57.31
59873;BME280;50750;51.636;4.948;2023-04-26T07:46:01;102142.90;;;13.39;57.05
59873;BME280;50750;51.636;4.948;2023-04-26T07:48:28;102143.21;;;13.40;57.14
59873;BME280;50750;51.636;4.948;2023-04-26T07:50:54;102144.80;;;13.41;57.15
59873;BME280;50750;51.636;4.948;2023-04-26T07:53:21;102145.30;;;13.42;57.06
59873;BME280;50750;51.636;4.948;2023-04-26T07:55:51;102144.94;;;13.43;57.08
59873;BME280;50750;51.636;4.948;2023-04-26T07:58:17;102144.92;;;13.43;56.79
59873;BME280;50750;51.636;4.948;2023-04-26T08:00:45;102144.73;;;13.44;56.88
59873;BME280;50750;51.636;4.948;2023-04-26T08:03:14;102148.77;;;13.45;57.08
59873;BME280;50750;51.636;4.948;2023-04-26T08:05:41;102149.10;;;13.45;57.13
59873;BME280;50750;51.636;4.948;2023-04-26T08:08:08;102154.03;;;13.45;57.16
59873;BME280;50750;51.636;4.948;2023-04-26T08:10:35;102152.80;;;13.45;57.17
59873;BME280;50750;51.636;4.948;2023-04-26T08:13:02;102151.74;;;13.45;57.11
59873;BME280;50750;51.636;4.948;2023-04-26T08:15:29;102146.82;;;13.45;57.17
59873;BME280;50750;51.636;4.948;2023-04-26T08:17:57;102153.52;;;13.44;57.15
59873;BME280;50750;51.636;4.948;2023-04-26T08:20:23;102152.83;;;13.44;57.16
59873;BME280;50750;51.636;4.948;2023-04-26T08:22:59;102150.19;;;13.44;57.12
59873;BME280;50750;51.636;4.948;2023-04-26T08:25:26;102150.91;;;13.43;57.13
59873;BME280;50750;51.636;4.948;2023-04-26T08:27:52;102146.52;;;13.43;57.02
59873;BME280;50750;51.636;4.948;2023-04-26T08:35:38;102151.98;;;13.42;57.28
59873;BME280;50750;51.636;4.948;2023-04-26T08:38:05;102154.63;;;13.42;57.10
59873;BME280;50750;51.636;4.948;2023-04-26T08:40:33;102152.87;;;13.42;57.12
59873;BME280;50750;51.636;4.948;2023-04-26T08:42:59;102149.02;;;13.41;57.31
59873;BME280;50750;51.636;4.948;2023-04-26T08:45:26;102152.00;;;13.42;57.25
59873;BME280;50750;51.636;4.948;2023-04-26T08:47:56;102148.33;;;13.41;57.28
59873;BME280;50750;51.636;4.948;2023-04-26T08:50:23;102145.66;;;13.41;57.17
59873;BME280;50750;51.636;4.948;2023-04-26T08:52:51;102144.98;;;13.41;57.32
59873;BME280;50750;51.636;4.948;2023-04-26T08:55:18;102145.15;;;13.41;57.23
59873;BME280;50750;51.636;4.948;2023-04-26T08:57:46;102145.33;;;13.41;57.33
59873;BME280;50750;51.636;4.948;2023-04-26T09:00:14;102145.67;;;13.41;57.36
59873;BME280;50750;51.636;4.948;2023-04-26T09:02:46;102138.46;;;13.41;57.27
59873;BME280;50750;51.636;4.948;2023-04-26T09:05:13;102135.83;;;13.41;57.10
59873;BME280;50750;51.636;4.948;2023-04-26T09:07:41;102136.52;;;13.41;57.24
59873;BME280;50750;51.636;4.948;2023-04-26T09:10:09;102138.65;;;13.41;57.20
59873;BME280;50750;51.636;4.948;2023-04-26T09:12:36;102138.48;;;13.41;57.24
59873;BME280;50750;51.636;4.948;2023-04-26T09:15:05;102137.94;;;13.41;57.24
59873;BME280;50750;51.636;4.948;2023-04-26T09:17:37;102136.53;;;13.41;57.21
59873;BME280;50750;51.636;4.948;2023-04-26T09:20:23;102138.12;;;13.41;57.19
59873;BME280;50750;51.636;4.948;2023-04-26T09:22:53;102143.73;;;13.41;57.30
59873;BME280;50750;51.636;4.948;2023-04-26T09:25:30;102141.63;;;13.41;57.14
59873;BME280;50750;51.636;4.948;2023-04-26T09:27:57;102143.02;;;13.41;57.29
59873;BME280;50750;51.636;4.948;2023-04-26T09:30:25;102145.33;;;13.41;57.38
59873;BME280;50750;51.636;4.948;2023-04-26T09:32:55;102146.40;;;13.41;57.32
59873;BME280;50750;51.636;4.948;2023-04-26T09:35:32;102146.02;;;13.40;57.30
59873;BME280;50750;51.636;4.948;2023-04-26T09:40:36;102144.80;;;13.41;57.50
59873;BME280;50750;51.636;4.948;2023-04-26T09:43:04;102141.11;;;13.41;57.37
59873;BME280;50750;51.636;4.948;2023-04-26T09:45:42;102143.39;;;13.41;57.56
59873;BME280;50750;51.636;4.948;2023-04-26T09:50:44;102145.86;;;13.41;57.40
59873;BME280;50750;51.636;4.948;2023-04-26T09:56:10;102149.20;;;13.41;57.61
59873;BME280;50750;51.636;4.948;2023-04-26T09:58:39;102150.42;;;13.41;57.47
59873;BME280;50750;51.636;4.948;2023-04-26T10:01:07;102148.14;;;13.41;57.62
59873;BME280;50750;51.636;4.948;2023-04-26T10:03:36;102143.55;;;13.41;57.57
59873;BME280;50750;51.636;4.948;2023-04-26T10:06:03;102139.31;;;13.42;57.34
59873;BME280;50750;51.636;4.948;2023-04-26T10:08:30;102138.77;;;13.43;57.45
59873;BME280;50750;51.636;4.948;2023-04-26T10:10:59;102136.80;;;13.44;57.64
59873;BME280;50750;51.636;4.948;2023-04-26T10:13:27;102139.58;;;13.46;57.56
59873;BME280;50750;51.636;4.948;2023-04-26T10:15:54;102133.23;;;13.47;57.57
59873;BME280;50750;51.636;4.948;2023-04-26T10:18:21;102132.84;;;13.48;57.40
59873;BME280;50750;51.636;4.948;2023-04-26T10:20:50;102125.27;;;13.48;57.59
59873;BME280;50750;51.636;4.948;2023-04-26T10:23:21;102127.91;;;13.48;57.43
59873;BME280;50750;51.636;4.948;2023-04-26T10:25:51;102127.02;;;13.48;57.55
59873;BME280;50750;51.636;4.948;2023-04-26T10:31:11;102132.49;;;13.48;57.41
59873;BME280;50750;51.636;4.948;2023-04-26T10:33:37;102136.92;;;13.47;57.42
59873;BME280;50750;51.636;4.948;2023-04-26T10:36:11;102138.51;;;13.47;57.69
59873;BME280;50750;51.636;4.948;2023-04-26T10:41:36;102132.16;;;13.47;57.54
59873;BME280;50750;51.636;4.948;2023-04-26T10:44:36;102131.81;;;13.47;57.47
59873;BME280;50750;51.636;4.948;2023-04-26T10:47:19;102125.84;;;13.47;57.69
59873;BME280;50750;51.636;4.948;2023-04-26T10:49:47;102121.24;;;13.47;57.57
59873;BME280;50750;51.636;4.948;2023-04-26T10:52:18;102121.08;;;13.47;57.56
59873;BME280;50750;51.636;4.948;2023-04-26T10:54:51;102117.73;;;13.47;57.65
59873;BME280;50750;51.636;4.948;2023-04-26T10:57:17;102118.09;;;13.47;57.74
59873;BME280;50750;51.636;4.948;2023-04-26T11:10:39;102101.17;;;13.48;57.61
59873;BME280;50750;51.636;4.948;2023-04-26T11:13:06;102102.73;;;13.48;57.63
59873;BME280;50750;51.636;4.948;2023-04-26T11:15:34;102102.40;;;13.48;57.65
59873;BME280;50750;51.636;4.948;2023-04-26T11:18:02;102099.23;;;13.48;57.61
59873;BME280;50750;51.636;4.948;2023-04-26T11:20:30;102099.41;;;13.48;57.65
59873;BME280;50750;51.636;4.948;2023-04-26T11:22:58;102091.67;;;13.48;57.64
59873;BME280;50750;51.636;4.948;2023-04-26T11:25:26;102093.23;;;13.49;57.78
59873;BME280;50750;51.636;4.948;2023-04-26T11:28:01;102086.55;;;13.48;57.74
59873;BME280;50750;51.636;4.948;2023-04-26T11:30:32;102085.86;;;13.49;57.50
59873;BME280;50750;51.636;4.948;2023-04-26T11:32:59;102089.02;;;13.49;57.88
59873;BME280;50750;51.636;4.948;2023-04-26T11:35:26;102090.59;;;13.50;57.68
59873;BME280;50750;51.636;4.948;2023-04-26T11:37:57;102090.58;;;13.50;57.70
59873;BME280;50750;51.636;4.948;2023-04-26T11:40:30;102092.34;;;13.50;57.67
59873;BME280;50750;51.636;4.948;2023-04-26T11:43:04;102095.84;;;13.51;57.69
59873;BME280;50750;51.636;4.948;2023-04-26T11:45:32;102096.02;;;13.51;57.69
59873;BME280;50750;51.636;4.948;2023-04-26T11:48:03;102095.13;;;13.52;57.88
59873;BME280;50750;51.636;4.948;2023-04-26T11:50:32;102095.66;;;13.51;57.70
59873;BME280;50750;51.636;4.948;2023-04-26T11:53:01;102093.70;;;13.52;57.83
59873;BME280;50750;51.636;4.948;2023-04-26T11:55:30;102098.63;;;13.52;57.63
59873;BME280;50750;51.636;4.948;2023-04-26T11:57:58;102098.27;;;13.52;57.74
59873;BME280;50750;51.636;4.948;2023-04-26T12:00:26;102099.66;;;13.53;57.68
59873;BME280;50750;51.636;4.948;2023-04-26T12:02:52;102100.89;;;13.53;57.70
59873;BME280;50750;51.636;4.948;2023-04-26T12:05:24;102097.54;;;13.54;57.60
59873;BME280;50750;51.636;4.948;2023-04-26T12:07:56;102095.95;;;13.54;57.73
59873;BME280;50750;51.636;4.948;2023-04-26T12:10:28;102096.64;;;13.55;57.73
59873;BME280;50750;51.636;4.948;2023-04-26T12:12:58;102093.65;;;13.54;57.67
59873;BME280;50750;51.636;4.948;2023-04-26T12:15:29;102092.58;;;13.55;57.75
59873;BME280;50750;51.636;4.948;2023-04-26T12:18:05;102099.96;;;13.55;57.64
59873;BME280;50750;51.636;4.948;2023-04-26T12:20:36;102098.71;;;13.56;57.83
59873;BME280;50750;51.636;4.948;2023-04-26T12:25:34;102090.26;;;13.57;57.74
59873;BME280;50750;51.636;4.948;2023-04-26T12:28:03;102090.77;;;13.57;57.67
59873;BME280;50750;51.636;4.948;2023-04-26T12:30:30;102087.60;;;13.57;57.68
59873;BME280;50750;51.636;4.948;2023-04-26T12:32:57;102084.94;;;13.58;57.65
59873;BME280;50750;51.636;4.948;2023-04-26T12:35:23;102084.73;;;13.59;57.74
59873;BME280;50750;51.636;4.948;2023-04-26T12:37:50;102082.09;;;13.59;57.88
59873;BME280;50750;51.636;4.948;2023-04-26T12:40:19;102086.30;;;13.60;57.75
59873;BME280;50750;51.636;4.948;2023-04-26T12:42:46;102089.11;;;13.60;57.74
59873;BME280;50750;51.636;4.948;2023-04-26T12:45:13;102090.86;;;13.61;57.61
59873;BME280;50750;51.636;4.948;2023-04-26T12:47:39;102093.13;;;13.61;57.72
59873;BME280;50750;51.636;4.948;2023-04-26T12:50:07;102095.23;;;13.61;57.76
59873;BME280;50750;51.636;4.948;2023-04-26T12:52:34;102092.59;;;13.62;57.72
59873;BME280;50750;51.636;4.948;2023-04-26T12:55:01;102099.27;;;13.62;57.75
59873;BME280;50750;51.636;4.948;2023-04-26T12:57:27;102099.61;;;13.63;57.75
59873;BME280;50750;51.636;4.948;2023-04-26T12:59:54;102093.81;;;13.63;57.73
59873;BME280;50750;51.636;4.948;2023-04-26T13:02:21;102098.89;;;13.63;57.70
59873;BME280;50750;51.636;4.948;2023-04-26T13:04:48;102101.71;;;13.63;57.60
59873;BME280;50750;51.636;4.948;2023-04-26T13:07:15;102102.58;;;13.64;57.66
59873;BME280;50750;51.636;4.948;2023-04-26T13:09:41;102101.68;;;13.65;57.49
59873;BME280;50750;51.636;4.948;2023-04-26T13:12:08;102099.75;;;13.64;57.47
59873;BME280;50750;51.636;4.948;2023-04-26T13:14:34;102101.50;;;13.65;57.41
59873;BME280;50750;51.636;4.948;2023-04-26T13:17:01;102101.14;;;13.65;57.66
59873;BME280;50750;51.636;4.948;2023-04-26T13:19:30;102101.32;;;13.66;57.78
59873;BME280;50750;51.636;4.948;2023-04-26T13:21:56;102098.84;;;13.66;57.66
59873;BME280;50750;51.636;4.948;2023-04-26T13:24:22;102098.83;;;13.66;57.58
59873;BME280;50750;51.636;4.948;2023-04-26T13:26:49;102096.17;;;13.67;57.72